createdAt,value
2018-07-17T00:00:15.524Z,6.43
2018-07-17T00:02:44.656Z,6.77
2018-07-17T00:05:13.937Z,7.23
2018-07-17T00:07:43.766Z,6.73
2018-07-17T00:10:12.943Z,7.20
2018-07-17T00:12:42.241Z,7.13
2018-07-17T00:15:11.271Z,7.67
2018-07-17T00:17:40.347Z,7.57
2018-07-17T00:20:09.516Z,7.13
2018-07-17T00:22:38.775Z,7.40
2018-07-17T00:25:07.973Z,7.37
2018-07-17T00:27:37.258Z,7.53
2018-07-17T00:30:06.423Z,8.17
2018-07-17T00:32:35.553Z,7.60
2018-07-17T00:35:04.715Z,8.33
2018-07-17T00:37:33.754Z,8.17
2018-07-17T00:40:02.791Z,7.90
2018-07-17T00:42:32.048Z,7.60
2018-07-17T00:45:01.232Z,7.57
2018-07-17T00:47:30.343Z,7.90
2018-07-17T00:50:00.343Z,7.40
2018-07-17T00:52:29.763Z,7.80
2018-07-17T00:54:59.461Z,7.83
2018-07-17T00:57:28.694Z,7.40
2018-07-17T00:59:58.156Z,7.77
2018-07-17T01:02:32.613Z,7.50
2018-07-17T01:05:07.141Z,7.90
2018-07-17T01:07:41.591Z,8.07
2018-07-17T01:10:15.872Z,8.13
2018-07-17T01:12:44.235Z,7.50
2018-07-17T01:15:32.101Z,8.20
2018-07-17T01:18:01.224Z,7.50
2018-07-17T01:20:30.672Z,7.80
2018-07-17T01:23:00.588Z,8.07
2018-07-17T01:25:29.751Z,8.60
2018-07-17T01:27:58.879Z,7.77
2018-07-17T01:30:28.653Z,9.40
2018-07-17T01:32:57.823Z,8.90
2018-07-17T01:35:26.983Z,9.77
2018-07-17T01:37:56.076Z,9.53
2018-07-17T01:40:26.233Z,10.17
2018-07-17T01:42:55.505Z,9.23
2018-07-17T01:45:25.202Z,9.77
2018-07-17T01:47:54.645Z,9.40
2018-07-17T01:50:23.980Z,9.03
2018-07-17T01:52:53.104Z,9.53
2018-07-17T01:55:22.400Z,10.10
2018-07-17T01:57:51.506Z,12.93
2018-07-17T02:00:21.137Z,13.47
2018-07-17T02:02:50.519Z,13.23
2018-07-17T02:05:19.822Z,11.73
2018-07-17T02:07:49.431Z,10.93
2018-07-17T02:10:19.561Z,11.23
2018-07-17T02:12:48.797Z,11.40
2018-07-17T02:15:17.955Z,11.93
2018-07-17T02:17:47.338Z,12.57
2018-07-17T02:20:16.637Z,10.90
2018-07-17T02:22:45.836Z,10.83
2018-07-17T02:25:15.011Z,11.37
2018-07-17T02:27:44.311Z,11.80
2018-07-17T02:30:13.428Z,11.40
2018-07-17T02:32:42.563Z,11.30
2018-07-17T02:35:12.236Z,11.97
2018-07-17T02:37:41.332Z,12.50
2018-07-17T02:40:10.839Z,11.63
2018-07-17T02:42:40.151Z,12.23
2018-07-17T02:45:09.360Z,12.70
2018-07-17T02:47:38.640Z,12.43
2018-07-17T02:50:07.794Z,12.20
2018-07-17T02:52:38.085Z,12.93
2018-07-17T02:55:07.590Z,12.47
2018-07-17T02:57:36.774Z,12.37
2018-07-17T03:00:06.024Z,12.27
2018-07-17T03:02:35.808Z,13.13
2018-07-17T03:05:05.421Z,12.40
2018-07-17T03:07:34.616Z,12.23
2018-07-17T03:10:04.457Z,11.07
2018-07-17T03:12:33.805Z,11.60
2018-07-17T03:15:03.000Z,10.70
2018-07-17T03:17:32.417Z,10.73
2018-07-17T03:20:01.675Z,10.43
2018-07-17T03:22:31.026Z,9.77
2018-07-17T03:25:00.199Z,9.60
2018-07-17T03:27:29.564Z,9.57
2018-07-17T03:29:58.690Z,9.40
2018-07-17T03:32:28.008Z,8.90
2018-07-17T03:34:57.180Z,9.87
2018-07-17T03:37:26.378Z,8.83
2018-07-17T03:39:55.563Z,8.37
2018-07-17T03:42:24.716Z,8.60
2018-07-17T03:44:53.884Z,7.93
2018-07-17T03:47:22.992Z,7.90
2018-07-17T03:49:52.155Z,8.17
2018-07-17T03:52:21.459Z,7.97
2018-07-17T03:54:50.720Z,7.43
2018-07-17T03:57:19.782Z,7.23
2018-07-17T03:59:48.976Z,7.40
2018-07-17T04:02:18.200Z,6.47
2018-07-17T04:04:47.850Z,6.33
2018-07-17T04:07:21.845Z,6.20
2018-07-17T04:09:51.087Z,6.23
2018-07-17T04:12:20.412Z,6.17
2018-07-17T04:14:51.888Z,6.07
2018-07-17T04:17:22.231Z,5.60
2018-07-17T04:19:51.536Z,5.40
2018-07-17T04:22:20.738Z,5.53
2018-07-17T04:24:50.046Z,5.57
2018-07-17T04:27:19.282Z,5.37
2018-07-17T04:29:49.283Z,5.33
2018-07-17T04:32:18.429Z,5.17
2018-07-17T04:34:47.547Z,4.80
2018-07-17T04:37:16.877Z,5.07
2018-07-17T04:39:46.336Z,4.93
2018-07-17T04:42:15.505Z,4.90
2018-07-17T04:44:45.172Z,4.70
2018-07-17T04:47:14.270Z,4.90
2018-07-17T04:49:43.723Z,4.17
2018-07-17T04:52:12.997Z,4.77
2018-07-17T04:54:42.284Z,4.40
2018-07-17T04:57:11.603Z,3.93
2018-07-17T04:59:40.733Z,3.80
2018-07-17T05:02:10.094Z,3.97
2018-07-17T05:04:39.228Z,4.15
2018-07-17T05:07:08.541Z,3.90
2018-07-17T05:09:37.987Z,3.80
2018-07-17T05:12:07.198Z,3.90
2018-07-17T05:14:36.470Z,3.80
2018-07-17T05:17:06.021Z,3.90
2018-07-17T05:19:35.308Z,3.73
2018-07-17T05:22:04.402Z,3.60
2018-07-17T05:24:35.031Z,3.57
2018-07-17T05:27:04.220Z,3.83
2018-07-17T05:29:33.472Z,3.60
2018-07-17T05:32:02.614Z,3.50
2018-07-17T05:34:31.842Z,3.53
2018-07-17T05:37:01.030Z,3.60
2018-07-17T05:39:30.335Z,3.33
2018-07-17T05:42:00.025Z,3.40
2018-07-17T05:44:29.456Z,3.40
2018-07-17T05:46:58.665Z,3.43
2018-07-17T05:49:27.812Z,3.70
2018-07-17T05:51:57.071Z,3.53
2018-07-17T05:54:26.322Z,3.80
2018-07-17T05:56:55.542Z,3.50
2018-07-17T05:59:24.807Z,3.30
2018-07-17T06:01:54.350Z,4.00
2018-07-17T06:04:23.520Z,3.57
2018-07-17T06:06:52.699Z,3.80
2018-07-17T06:09:21.919Z,3.83
2018-07-17T06:11:51.131Z,4.00
2018-07-17T06:14:20.302Z,4.20
2018-07-17T06:16:49.353Z,4.27
2018-07-17T06:19:18.488Z,4.17
2018-07-17T06:21:47.713Z,3.67
2018-07-17T06:24:17.506Z,4.20
2018-07-17T06:26:47.429Z,4.30
2018-07-17T06:29:17.346Z,4.30
2018-07-17T06:31:46.677Z,4.37
2018-07-17T06:34:15.911Z,4.80
2018-07-17T06:36:45.020Z,4.80
2018-07-17T06:39:14.095Z,4.80
2018-07-17T06:41:43.242Z,5.13
2018-07-17T06:44:13.128Z,4.47
2018-07-17T06:46:42.300Z,5.47
2018-07-17T06:49:11.655Z,6.13
2018-07-17T06:51:40.960Z,6.63
2018-07-17T06:54:10.844Z,6.20
2018-07-17T06:56:39.865Z,6.50
2018-07-17T06:59:09.200Z,6.53
2018-07-17T07:01:39.256Z,6.37
2018-07-17T07:04:08.321Z,7.50
2018-07-17T07:06:37.672Z,7.03
2018-07-17T07:09:08.319Z,7.30
2018-07-17T07:11:37.525Z,7.37
2018-07-17T07:14:07.129Z,7.83
2018-07-17T07:16:36.191Z,6.80
2018-07-17T07:19:06.122Z,7.27
2018-07-17T07:21:35.591Z,7.10
2018-07-17T07:24:04.820Z,7.00
2018-07-17T07:26:34.108Z,6.50
2018-07-17T07:29:03.557Z,7.33
2018-07-17T07:31:32.603Z,7.37
2018-07-17T07:34:02.064Z,7.23
2018-07-17T07:36:31.423Z,7.70
2018-07-17T07:39:00.537Z,6.90
2018-07-17T07:41:29.767Z,7.80
2018-07-17T07:43:59.033Z,7.87
2018-07-17T07:46:28.383Z,7.77
2018-07-17T07:48:57.524Z,9.17
2018-07-17T07:51:26.719Z,8.57
2018-07-17T07:53:55.880Z,8.73
2018-07-17T07:56:25.248Z,9.33
2018-07-17T07:58:54.723Z,8.20
2018-07-17T08:01:23.978Z,8.60
2018-07-17T08:03:53.098Z,8.80
2018-07-17T08:06:22.107Z,8.60
2018-07-17T08:08:51.176Z,8.70
2018-07-17T08:11:20.436Z,8.30
2018-07-17T08:13:49.585Z,8.90
2018-07-17T08:16:18.875Z,8.80
2018-07-17T08:18:48.091Z,8.57
2018-07-17T08:21:17.416Z,8.73
2018-07-17T08:23:46.596Z,8.70
2018-07-17T08:26:15.796Z,8.77
2018-07-17T08:28:45.012Z,9.47
2018-07-17T08:31:14.182Z,8.43
2018-07-17T08:33:43.406Z,8.40
2018-07-17T08:36:13.081Z,7.57
2018-07-17T08:38:42.926Z,7.20
2018-07-17T08:41:12.536Z,8.90
2018-07-17T08:43:42.167Z,8.27
2018-07-17T08:46:11.234Z,8.77
2018-07-17T08:48:40.441Z,7.73
2018-07-17T08:51:09.485Z,7.60
2018-07-17T08:53:38.558Z,9.63
2018-07-17T08:56:07.679Z,10.70
2018-07-17T08:58:36.727Z,9.90
2018-07-17T09:01:05.992Z,10.20
2018-07-17T09:03:35.309Z,11.17
2018-07-17T09:06:04.597Z,11.90
2018-07-17T09:08:33.729Z,10.87
2018-07-17T09:11:02.913Z,11.87
2018-07-17T09:13:34.881Z,12.83
2018-07-17T09:16:04.287Z,13.83
2018-07-17T09:18:34.297Z,14.73
2018-07-17T09:21:03.518Z,14.40
2018-07-17T09:23:32.791Z,12.53
2018-07-17T09:26:02.089Z,13.53
2018-07-17T09:28:31.245Z,12.50
2018-07-17T09:31:01.819Z,14.30
2018-07-17T09:33:32.557Z,12.00
2018-07-17T09:36:01.835Z,11.73
2018-07-17T09:38:31.110Z,12.90
2018-07-17T09:41:00.164Z,11.87
2018-07-17T09:43:29.389Z,11.53
2018-07-17T09:45:58.757Z,12.10
2018-07-17T09:48:28.058Z,11.90
2018-07-17T09:50:57.265Z,11.57
2018-07-17T09:53:26.337Z,9.87
2018-07-17T09:55:55.489Z,12.70
2018-07-17T09:58:24.737Z,12.17
2018-07-17T10:00:59.155Z,12.10
2018-07-17T10:03:31.731Z,10.97
2018-07-17T10:06:00.787Z,9.40
2018-07-17T10:08:29.882Z,10.37
2018-07-17T10:10:59.043Z,10.33
2018-07-17T10:13:28.297Z,11.50
2018-07-17T10:15:57.610Z,11.10
2018-07-17T10:18:27.099Z,10.93
2018-07-17T10:20:56.321Z,10.00
2018-07-17T10:23:25.619Z,9.10
2018-07-17T10:25:55.155Z,10.53
2018-07-17T10:28:24.294Z,8.60
2018-07-17T10:30:53.504Z,8.47
2018-07-17T10:33:22.451Z,8.03
2018-07-17T10:35:51.959Z,8.83
2018-07-17T10:38:21.038Z,8.70
2018-07-17T10:40:50.220Z,6.97
2018-07-17T10:43:19.279Z,7.53
2018-07-17T10:45:49.016Z,8.57
2018-07-17T10:48:18.199Z,8.13
2018-07-17T10:50:47.338Z,8.20
2018-07-17T10:53:16.486Z,6.87
2018-07-17T10:55:45.935Z,7.27
2018-07-17T10:58:15.186Z,5.70
2018-07-17T11:00:44.418Z,5.07
2018-07-17T11:03:13.715Z,5.60
2018-07-17T11:05:43.192Z,5.50
2018-07-17T11:08:12.580Z,5.40
2018-07-17T11:10:41.709Z,4.67
2018-07-17T11:13:10.931Z,4.87
2018-07-17T11:15:40.143Z,4.77
2018-07-17T11:18:09.317Z,5.10
2018-07-17T11:20:38.955Z,4.83
2018-07-17T11:23:08.144Z,5.53
2018-07-17T11:25:37.736Z,4.70
2018-07-17T11:28:07.016Z,5.20
2018-07-17T11:30:36.210Z,4.57
2018-07-17T11:33:05.443Z,4.10
2018-07-17T11:35:35.442Z,4.70
2018-07-17T11:38:04.650Z,4.20
2018-07-17T11:40:33.395Z,4.00
2018-07-17T11:43:02.528Z,4.40
2018-07-17T11:45:32.273Z,4.33
2018-07-17T11:48:01.410Z,4.30
2018-07-17T11:50:30.834Z,3.52
2018-07-17T11:53:00.057Z,3.60
2018-07-17T11:55:29.168Z,2.92
2018-07-17T11:57:58.248Z,3.50
2018-07-17T12:00:27.506Z,3.60
2018-07-17T12:02:57.025Z,3.80
2018-07-17T12:05:26.351Z,3.85
2018-07-17T12:07:55.553Z,3.80
2018-07-17T12:10:24.563Z,3.90
2018-07-17T12:12:53.852Z,3.40
2018-07-17T12:15:23.842Z,2.93
2018-07-17T12:17:52.989Z,3.40
2018-07-17T12:20:23.686Z,3.60
2018-07-17T12:22:52.948Z,3.08
2018-07-17T12:25:22.078Z,3.40
2018-07-17T12:27:51.228Z,2.97
2018-07-17T12:30:20.488Z,2.92
2018-07-17T12:32:49.761Z,2.60
2018-07-17T12:35:18.964Z,2.50
2018-07-17T12:37:49.006Z,2.77
2018-07-17T12:40:18.126Z,2.67
2018-07-17T12:42:47.469Z,2.20
2018-07-17T12:45:16.664Z,2.30
2018-07-17T12:47:46.070Z,2.50
2018-07-17T12:50:15.540Z,2.55
2018-07-17T12:52:44.669Z,2.00
2018-07-17T12:55:14.005Z,1.80
2018-07-17T12:57:42.985Z,1.95
2018-07-17T13:00:12.122Z,1.83
2018-07-17T13:02:41.376Z,2.00
2018-07-17T13:05:10.467Z,2.17
2018-07-17T13:07:39.441Z,2.42
2018-07-17T13:10:08.244Z,2.10
2018-07-17T13:12:37.329Z,2.00
2018-07-17T13:15:07.133Z,1.92
2018-07-17T13:17:36.396Z,2.17
2018-07-17T13:20:05.734Z,2.02
2018-07-17T13:22:34.833Z,2.00
2018-07-17T13:25:04.971Z,1.98
2018-07-17T13:27:34.226Z,2.05
2018-07-17T13:30:04.076Z,2.20
2018-07-17T13:32:33.236Z,2.33
2018-07-17T13:35:02.509Z,2.20
2018-07-17T13:37:32.009Z,1.90
2018-07-17T13:40:01.367Z,1.80
2018-07-17T13:42:30.469Z,2.00
2018-07-17T13:44:59.627Z,2.07
2018-07-17T13:47:28.998Z,1.82
2018-07-17T13:49:58.245Z,2.17
2018-07-17T13:52:27.452Z,1.90
2018-07-17T13:54:56.643Z,1.97
2018-07-17T13:57:25.970Z,1.82
2018-07-17T13:59:55.313Z,1.80
2018-07-17T14:02:24.418Z,1.82
2018-07-17T14:04:53.506Z,1.80
2018-07-17T14:07:22.871Z,1.80
2018-07-17T14:09:52.135Z,1.95
2018-07-17T14:12:21.304Z,2.00
2018-07-17T14:14:50.719Z,2.10
2018-07-17T14:17:19.967Z,1.85
2018-07-17T14:19:49.133Z,1.73
2018-07-17T14:22:18.450Z,1.80
2018-07-17T14:24:47.755Z,1.70
2018-07-17T14:27:16.891Z,1.80
2018-07-17T14:29:45.679Z,1.90
2018-07-17T14:32:14.844Z,1.90
2018-07-17T14:34:44.081Z,1.95
2018-07-17T14:37:13.631Z,1.95
2018-07-17T14:39:42.851Z,2.10
2018-07-17T14:42:12.371Z,1.83
2018-07-17T14:44:42.227Z,1.90
2018-07-17T14:47:11.468Z,1.90
2018-07-17T14:49:40.661Z,2.30
2018-07-17T14:52:09.973Z,2.20
2018-07-17T14:54:39.299Z,1.82
2018-07-17T14:57:08.567Z,1.95
2018-07-17T14:59:37.906Z,2.00
2018-07-17T15:02:07.675Z,1.70
2018-07-17T15:04:36.874Z,1.70
2018-07-17T15:07:06.326Z,1.72
2018-07-17T15:09:35.630Z,1.70
2018-07-17T15:12:04.964Z,1.75
2018-07-17T15:14:33.976Z,1.62
2018-07-17T15:17:03.016Z,1.72
2018-07-17T15:19:32.396Z,1.62
2018-07-17T15:22:01.498Z,1.70
2018-07-17T15:24:30.769Z,1.82
2018-07-17T15:26:59.863Z,1.80
2018-07-17T15:29:29.740Z,1.67
2018-07-17T15:31:59.248Z,1.85
2018-07-17T15:34:28.408Z,1.80
2018-07-17T15:36:57.485Z,1.80
2018-07-17T15:39:26.629Z,1.60
2018-07-17T15:41:55.877Z,1.90
2018-07-17T15:44:25.678Z,1.65
2018-07-17T15:46:55.729Z,1.85
2018-07-17T15:49:24.795Z,1.80
2018-07-17T15:51:54.108Z,1.90
2018-07-17T15:54:23.600Z,2.20
2018-07-17T15:56:53.807Z,1.83
2018-07-17T15:59:23.058Z,1.73
2018-07-17T16:01:52.185Z,1.70
2018-07-17T16:04:21.743Z,2.00
2018-07-17T16:06:51.163Z,2.20
2018-07-17T16:09:20.920Z,2.10
2018-07-17T16:11:50.060Z,2.20
2018-07-17T16:14:20.376Z,2.35
2018-07-17T16:16:50.305Z,2.12
2018-07-17T16:19:19.476Z,2.00
2018-07-17T16:21:48.687Z,2.40
2018-07-17T16:24:18.054Z,2.10
2018-07-17T16:26:47.250Z,2.25
2018-07-17T16:29:16.462Z,2.17
2018-07-17T16:31:45.776Z,2.17
2018-07-17T16:34:14.962Z,2.30
2018-07-17T16:36:44.163Z,2.30
2018-07-17T16:39:13.552Z,2.30
2018-07-17T16:41:42.710Z,2.05
2018-07-17T16:44:12.000Z,2.20
2018-07-17T16:46:41.589Z,1.85
2018-07-17T16:49:10.793Z,2.05
2018-07-17T16:51:41.477Z,1.87
2018-07-17T16:54:10.849Z,1.80
2018-07-17T16:56:40.023Z,2.08
2018-07-17T16:59:09.967Z,1.80
2018-07-17T17:01:39.135Z,2.03
2018-07-17T17:04:08.382Z,3.85
2018-07-17T17:06:38.460Z,1.67
2018-07-17T17:09:11.146Z,1.80
2018-07-17T17:11:40.424Z,2.12
2018-07-17T17:14:09.528Z,1.70
2018-07-17T17:16:39.468Z,2.43
2018-07-17T17:19:08.635Z,1.98
2018-07-17T17:21:38.721Z,1.80
2018-07-17T17:24:08.203Z,1.80
2018-07-17T17:26:37.274Z,1.70
2018-07-17T17:29:06.479Z,1.67
2018-07-17T17:31:35.375Z,1.90
2018-07-17T17:34:04.440Z,1.70
2018-07-17T17:36:33.689Z,1.45
2018-07-17T17:39:02.414Z,1.72
2018-07-17T17:41:31.236Z,1.85
2018-07-17T17:44:00.630Z,1.72
2018-07-17T17:46:29.946Z,1.70
2018-07-17T17:48:59.128Z,1.53
2018-07-17T17:51:27.881Z,1.80
2018-07-17T17:53:57.238Z,1.70
2018-07-17T17:56:27.275Z,1.75
2018-07-17T17:58:57.228Z,1.67
2018-07-17T18:01:26.768Z,1.60
2018-07-17T18:03:55.949Z,1.50
2018-07-17T18:06:25.176Z,1.82
2018-07-17T18:08:55.078Z,1.50
2018-07-17T18:11:24.289Z,1.70
2018-07-17T18:13:53.478Z,1.83
2018-07-17T18:16:23.575Z,1.70
2018-07-17T18:18:53.091Z,1.70
2018-07-17T18:21:22.275Z,2.17
2018-07-17T18:23:51.481Z,1.73
2018-07-17T18:26:20.580Z,1.67
2018-07-17T18:28:50.480Z,2.00
2018-07-17T18:31:20.149Z,1.83
2018-07-17T18:33:49.469Z,1.87
2018-07-17T18:36:18.793Z,1.80
2018-07-17T18:38:47.948Z,1.90
2018-07-17T18:41:17.206Z,1.87
2018-07-17T18:43:46.463Z,2.00
2018-07-17T18:46:15.666Z,1.70
2018-07-17T18:48:48.811Z,1.80
2018-07-17T18:51:18.300Z,1.87
2018-07-17T18:53:47.993Z,2.00
2018-07-17T18:56:17.426Z,1.70
2018-07-17T18:58:47.392Z,1.70
2018-07-17T19:01:16.597Z,1.87
2018-07-17T19:03:45.924Z,2.00
2018-07-17T19:06:15.012Z,1.90
2018-07-17T19:08:44.142Z,2.00
2018-07-17T19:11:14.385Z,2.10
2018-07-17T19:13:44.016Z,2.00
2018-07-17T19:16:13.241Z,2.00
2018-07-17T19:18:42.641Z,2.10
2018-07-17T19:21:11.801Z,1.90
2018-07-17T19:23:41.132Z,1.90
2018-07-17T19:26:11.155Z,1.67
2018-07-17T19:28:40.359Z,1.90
2018-07-17T19:31:10.130Z,1.87
2018-07-17T19:33:39.349Z,2.10
2018-07-17T19:36:08.754Z,2.17
2018-07-17T19:38:37.937Z,1.93
2018-07-17T19:41:07.416Z,2.10
2018-07-17T19:43:36.726Z,2.07
2018-07-17T19:46:06.109Z,2.07
2018-07-17T19:48:35.400Z,1.80
2018-07-17T19:51:04.199Z,1.90
2018-07-17T19:53:33.373Z,2.00
2018-07-17T19:56:02.483Z,3.60
2018-07-17T19:58:31.703Z,3.90
2018-07-17T20:01:01.255Z,4.60
2018-07-17T20:03:30.366Z,4.00
2018-07-17T20:05:59.546Z,2.70
2018-07-17T20:08:29.061Z,2.83
2018-07-17T20:10:58.308Z,2.47
2018-07-17T20:13:27.870Z,2.43
2018-07-17T20:15:57.120Z,2.55
2018-07-17T20:18:26.238Z,2.50
2018-07-17T20:20:55.559Z,2.30
2018-07-17T20:23:24.827Z,2.10
2018-07-17T20:25:54.187Z,1.80
2018-07-17T20:28:23.354Z,2.10
2018-07-17T20:30:52.525Z,2.13
2018-07-17T20:33:21.846Z,1.90
2018-07-17T20:35:50.980Z,2.10
2018-07-17T20:38:20.156Z,2.53
2018-07-17T20:40:49.406Z,2.20
2018-07-17T20:43:18.754Z,2.10
2018-07-17T20:45:48.041Z,2.27
2018-07-17T20:48:17.161Z,1.93
2018-07-17T20:50:45.924Z,2.10
2018-07-17T20:53:15.135Z,2.00
2018-07-17T20:55:44.714Z,2.10
2018-07-17T20:58:13.908Z,1.80
2018-07-17T21:00:43.215Z,2.10
2018-07-17T21:03:12.348Z,2.20
2018-07-17T21:05:41.541Z,2.43
2018-07-17T21:08:10.289Z,2.70
2018-07-17T21:10:39.294Z,2.90
2018-07-17T21:13:08.601Z,2.77
2018-07-17T21:15:37.928Z,2.80
2018-07-17T21:18:07.768Z,2.80
2018-07-17T21:20:37.513Z,2.70
2018-07-17T21:23:06.818Z,2.53
2018-07-17T21:25:36.010Z,2.43
2018-07-17T21:28:05.482Z,2.60
2018-07-17T21:30:35.166Z,2.97
2018-07-17T21:33:04.288Z,2.90
2018-07-17T21:35:34.307Z,2.90
2018-07-17T21:38:03.450Z,2.90
2018-07-17T21:40:32.681Z,3.60
2018-07-17T21:43:02.645Z,3.20
2018-07-17T21:45:31.773Z,3.23
2018-07-17T21:48:00.908Z,3.50
2018-07-17T21:50:30.173Z,3.60
2018-07-17T21:52:59.419Z,3.93
2018-07-17T21:55:29.070Z,4.20
2018-07-17T21:57:58.174Z,4.73
2018-07-17T22:00:27.684Z,4.50
2018-07-17T22:02:56.918Z,3.90
2018-07-17T22:05:26.740Z,3.70
2018-07-17T22:07:56.095Z,3.60
2018-07-17T22:10:25.513Z,3.70
2018-07-17T22:12:54.716Z,3.97
2018-07-17T22:15:24.126Z,3.80
2018-07-17T22:17:53.165Z,3.90
2018-07-17T22:20:22.591Z,4.43
2018-07-17T22:22:51.774Z,3.60
2018-07-17T22:25:21.027Z,3.80
2018-07-17T22:27:50.190Z,3.63
2018-07-17T22:30:19.456Z,3.80
2018-07-17T22:32:49.615Z,5.10
2018-07-17T22:35:18.498Z,6.77
2018-07-17T22:37:47.779Z,5.70
2018-07-17T22:40:17.010Z,4.60
2018-07-17T22:42:46.245Z,3.80
2018-07-17T22:45:15.389Z,3.20
2018-07-17T22:47:44.686Z,2.80
2018-07-17T22:50:13.991Z,3.10
2018-07-17T22:52:43.082Z,3.47
2018-07-17T22:55:12.261Z,2.97
2018-07-17T22:57:41.683Z,2.87
2018-07-17T23:00:10.874Z,3.10
2018-07-17T23:02:40.064Z,2.87
2018-07-17T23:05:09.217Z,3.17
2018-07-17T23:07:38.704Z,2.90
2018-07-17T23:10:07.898Z,3.00
2018-07-17T23:12:37.125Z,3.00
2018-07-17T23:15:06.492Z,3.10
2018-07-17T23:17:35.998Z,3.67
2018-07-17T23:20:05.550Z,3.73
2018-07-17T23:22:48.936Z,4.00
2018-07-17T23:25:18.525Z,4.10
2018-07-17T23:27:47.604Z,3.43
2018-07-17T23:30:17.152Z,3.90
2018-07-17T23:32:46.645Z,3.60
2018-07-17T23:35:16.354Z,3.90
2018-07-17T23:37:45.441Z,4.30
2018-07-17T23:40:14.958Z,3.60
2018-07-17T23:42:44.254Z,3.80
2018-07-17T23:45:14.336Z,3.47
2018-07-17T23:47:43.893Z,3.67
2018-07-17T23:50:13.294Z,4.20
2018-07-17T23:52:43.076Z,3.60
2018-07-17T23:55:13.210Z,4.00
2018-07-17T23:57:42.495Z,3.57
